X  Zatvori METAR podaci zračne luke     EHRD Rotterdam The Hague Airport
Temperatura
17°C Temperatura
16°C Točka rosišta
94% Vlaga



Vjetar
5 KM/S
3 MPS
1 M/S
3 Čvorovi



190°
J
Trenutna situacija

Djelimično oblačno Djelimično oblačno
Tlak zraka 1005.08 (hPa) - 29.68 (inHg)
Vidljivost 6 (milje) - 9.7 (km)
Zračna luka
Kôd zračne luke EHRD

Lokacija: Rotterdam The Hague Airport
Udaljenost: 14 (km)

Metar:
EHRD 160025Z AUTO 19003KT 140V240 9999 FEW036/// 17/16 Q1005 NOSIG

Vrijeme: 16-07-2024 02:25 CEST